Time;durP1;ratioP1;P1;durP2;ratioP2;P2;SDS_P1;SDS_P2;PMS_P1;PMS_P2;Temp;Humidity;BMP_temperature;BMP_pressure;BME280_temperature;BME280_humidity;BME280_pressure;Samples;Min_cycle;Max_cycle;Signal;HPM_P1;HPM_P2
2022/03/08 00:01:09;;;;;;;6.65;5.75;;;;;;;;;;5054981;28;20052;-82
2022/03/08 00:03:35;;;;;;;7.60;5.13;;;;;;;;;;5053840;28;20403;-82
2022/03/08 00:06:02;;;;;;;6.45;5.40;;;;;;;;;;5072253;28;20127;-80
2022/03/08 00:08:28;;;;;;;5.88;5.30;;;;;;;;;;5054678;28;20056;-80
2022/03/08 00:10:54;;;;;;;6.57;5.47;;;;;;;;;;5070642;28;20052;-80
2022/03/08 00:13:20;;;;;;;6.18;5.35;;;;;;;;;;5071887;28;20040;-80
2022/03/08 00:15:46;;;;;;;6.97;5.13;;;;;;;;;;5061848;28;20101;-81
2022/03/08 00:18:12;;;;;;;6.78;6.05;;;;;;;;;;5072600;28;20044;-80
2022/03/08 00:20:39;;;;;;;7.75;5.30;;;;;;;;;;5070863;28;20095;-81
2022/03/08 00:23:05;;;;;;;5.50;4.93;;;;;;;;;;5055819;28;20036;-80
2022/03/08 00:25:31;;;;;;;7.82;5.53;;;;;;;;;;5070142;28;20098;-81
2022/03/08 00:27:57;;;;;;;6.22;5.53;;;;;;;;;;5068195;28;20029;-80
2022/03/08 00:30:25;;;;;;;5.68;5.07;;;;;;;;;;5072076;28;20060;-81
2022/03/08 00:32:54;;;;;;;6.28;5.53;;;;;;;;;;5055974;28;20051;-81
2022/03/08 00:35:23;;;;;;;6.38;5.38;;;;;;;;;;5069445;28;20391;-81
2022/03/08 00:37:50;;;;;;;5.57;5.05;;;;;;;;;;5055411;28;20036;-81
2022/03/08 00:40:17;;;;;;;6.70;5.28;;;;;;;;;;5053952;28;20089;-81
2022/03/08 00:42:43;;;;;;;5.68;5.07;;;;;;;;;;5072257;28;20199;-80
2022/03/08 00:45:10;;;;;;;6.30;5.05;;;;;;;;;;5049667;28;20049;-80
2022/03/08 00:47:36;;;;;;;6.38;4.75;;;;;;;;;;5054748;28;20049;-81
2022/03/08 00:50:03;;;;;;;5.78;5.18;;;;;;;;;;5072428;28;20037;-80
2022/03/08 00:52:29;;;;;;;9.07;5.53;;;;;;;;;;5071502;28;20051;-80
2022/03/08 00:54:57;;;;;;;6.45;5.18;;;;;;;;;;5054508;28;20116;-80
2022/03/08 00:57:23;;;;;;;7.70;5.38;;;;;;;;;;5072295;28;20543;-81
2022/03/08 00:59:49;;;;;;;6.15;5.00;;;;;;;;;;5069695;28;20139;-80
2022/03/08 01:02:15;;;;;;;5.93;5.10;;;;;;;;;;5056877;28;20059;-81
2022/03/08 01:04:41;;;;;;;6.72;5.40;;;;;;;;;;5072978;28;20059;-80
2022/03/08 01:07:07;;;;;;;6.53;5.50;;;;;;;;;;5071521;28;20527;-80
2022/03/08 01:09:34;;;;;;;7.28;5.03;;;;;;;;;;5053899;28;20059;-80
2022/03/08 01:12:00;;;;;;;6.30;5.30;;;;;;;;;;5050016;28;20036;-80
2022/03/08 01:14:26;;;;;;;7.40;5.53;;;;;;;;;;5052097;28;20483;-81
2022/03/08 01:16:52;;;;;;;7.78;5.53;;;;;;;;;;5054822;28;20036;-80
2022/03/08 01:19:18;;;;;;;5.72;5.13;;;;;;;;;;5052321;28;20044;-81
2022/03/08 01:21:44;;;;;;;7.30;5.50;;;;;;;;;;5071712;28;20056;-81
2022/03/08 01:24:13;;;;;;;5.95;5.05;;;;;;;;;;5053959;28;20079;-81
2022/03/08 01:26:39;;;;;;;5.97;5.25;;;;;;;;;;5052763;28;20079;-81
2022/03/08 01:29:06;;;;;;;7.60;6.80;;;;;;;;;;5050953;28;20102;-80
2022/03/08 01:31:32;;;;;;;5.78;5.05;;;;;;;;;;5049299;28;20483;-81
2022/03/08 01:33:58;;;;;;;6.78;5.40;;;;;;;;;;5069369;28;20044;-81
2022/03/08 01:36:26;;;;;;;5.78;5.18;;;;;;;;;;5066906;28;21399;-81
2022/03/08 01:38:52;;;;;;;6.10;5.13;;;;;;;;;;5054242;28;20056;-79
2022/03/08 01:41:18;;;;;;;6.32;5.22;;;;;;;;;;5070158;28;20044;-81
2022/03/08 01:43:47;;;;;;;6.18;5.03;;;;;;;;;;5069046;28;20041;-81
2022/03/08 01:46:14;;;;;;;6.97;5.20;;;;;;;;;;5071056;28;20044;-82
2022/03/08 01:48:41;;;;;;;6.03;5.10;;;;;;;;;;5066853;28;20033;-81
2022/03/08 01:51:07;;;;;;;7.05;5.68;;;;;;;;;;5070319;28;20051;-81
2022/03/08 01:53:34;;;;;;;7.35;5.72;;;;;;;;;;5072056;28;20037;-81
2022/03/08 01:56:00;;;;;;;7.07;5.45;;;;;;;;;;5052954;28;20076;-81
2022/03/08 01:58:28;;;;;;;6.53;5.35;;;;;;;;;;5070341;28;20048;-82
2022/03/08 02:00:54;;;;;;;6.93;5.40;;;;;;;;;;5069911;28;20059;-81
2022/03/08 02:03:20;;;;;;;6.65;5.22;;;;;;;;;;5066211;28;20040;-81
2022/03/08 02:05:46;;;;;;;6.00;5.13;;;;;;;;;;5071094;28;20049;-81
2022/03/08 02:08:13;;;;;;;6.68;5.43;;;;;;;;;;5070837;28;20480;-81
2022/03/08 02:10:39;;;;;;;7.25;5.22;;;;;;;;;;5069572;28;20071;-81
2022/03/08 02:13:05;;;;;;;6.45;5.22;;;;;;;;;;5071171;28;20500;-82
2022/03/08 02:15:31;;;;;;;7.07;5.80;;;;;;;;;;5063637;28;20415;-81
2022/03/08 02:17:58;;;;;;;6.57;5.32;;;;;;;;;;5070210;28;20040;-81
2022/03/08 02:20:25;;;;;;;6.53;5.80;;;;;;;;;;5052790;28;20044;-81
2022/03/08 02:22:51;;;;;;;8.07;5.85;;;;;;;;;;5052907;28;20064;-81
2022/03/08 02:25:18;;;;;;;6.97;5.90;;;;;;;;;;5052362;28;20495;-82
2022/03/08 02:27:49;;;;;;;7.88;5.90;;;;;;;;;;5067467;28;20041;-80
2022/03/08 02:30:15;;;;;;;6.60;5.22;;;;;;;;;;5070759;28;20139;-80
2022/03/08 02:32:42;;;;;;;6.18;5.28;;;;;;;;;;5068733;28;20051;-80
2022/03/08 02:35:09;;;;;;;8.20;5.53;;;;;;;;;;5071346;28;20044;-81
2022/03/08 02:37:40;;;;;;;6.55;5.72;;;;;;;;;;5051758;28;20361;-81
2022/03/08 02:40:07;;;;;;;7.25;5.65;;;;;;;;;;5069463;28;20075;-81
2022/03/08 02:42:36;;;;;;;6.50;5.65;;;;;;;;;;5069135;28;20630;-81
2022/03/08 02:45:06;;;;;;;7.18;5.50;;;;;;;;;;5070961;28;20111;-80
2022/03/08 02:47:32;;;;;;;6.82;5.70;;;;;;;;;;5067681;28;20033;-81
2022/03/08 02:49:58;;;;;;;7.38;5.95;;;;;;;;;;5053516;28;20052;-81
2022/03/08 02:52:24;;;;;;;7.65;5.70;;;;;;;;;;5065760;28;20032;-81
2022/03/08 02:54:50;;;;;;;6.00;5.38;;;;;;;;;;5059256;28;20400;-81
2022/03/08 02:57:16;;;;;;;6.78;5.60;;;;;;;;;;5047853;28;20033;-81
2022/03/08 02:59:42;;;;;;;7.28;5.53;;;;;;;;;;5050754;28;20074;-81
2022/03/08 03:02:08;;;;;;;6.20;5.55;;;;;;;;;;5067318;28;20084;-81
2022/03/08 03:04:34;;;;;;;9.82;5.93;;;;;;;;;;5066474;28;20044;-81
2022/03/08 03:07:00;;;;;;;8.60;6.35;;;;;;;;;;5035198;28;20051;-81
2022/03/08 03:09:26;;;;;;;7.70;6.22;;;;;;;;;;5052240;28;20480;-81
2022/03/08 03:11:52;;;;;;;8.07;6.05;;;;;;;;;;5049375;28;20072;-81
2022/03/08 03:14:18;;;;;;;6.93;5.53;;;;;;;;;;5069678;28;20435;-81
2022/03/08 03:16:44;;;;;;;7.25;6.00;;;;;;;;;;5066027;28;20052;-81
2022/03/08 03:19:10;;;;;;;9.45;6.70;;;;;;;;;;5046842;28;20041;-81
2022/03/08 03:21:36;;;;;;;6.60;5.50;;;;;;;;;;5056686;28;20052;-81
2022/03/08 03:24:02;;;;;;;8.30;6.65;;;;;;;;;;5068178;28;20055;-81
2022/03/08 03:26:29;;;;;;;9.93;6.25;;;;;;;;;;5052290;28;20048;-81
2022/03/08 03:28:55;;;;;;;7.25;6.28;;;;;;;;;;5067490;28;20057;-81
2022/03/08 03:31:21;;;;;;;8.05;6.32;;;;;;;;;;5068232;28;20052;-81
2022/03/08 03:33:47;;;;;;;9.20;6.35;;;;;;;;;;5049619;28;20143;-81
2022/03/08 03:36:14;;;;;;;7.57;6.15;;;;;;;;;;5039676;28;20052;-81
2022/03/08 03:38:40;;;;;;;8.02;6.70;;;;;;;;;;5051717;28;20052;-80
2022/03/08 03:41:06;;;;;;;8.32;6.40;;;;;;;;;;5051008;28;20513;-81
2022/03/08 03:43:32;;;;;;;9.07;6.40;;;;;;;;;;5051508;28;20092;-81
2022/03/08 03:45:58;;;;;;;7.50;6.15;;;;;;;;;;5069578;28;20041;-80
2022/03/08 03:48:24;;;;;;;8.32;6.38;;;;;;;;;;5069324;28;20131;-81
2022/03/08 03:50:51;;;;;;;7.60;6.28;;;;;;;;;;5046205;28;20043;-81
2022/03/08 03:53:19;;;;;;;8.75;6.80;;;;;;;;;;5069864;28;20036;-80
2022/03/08 03:55:48;;;;;;;7.57;6.32;;;;;;;;;;5062475;28;20086;-81
2022/03/08 03:58:17;;;;;;;8.50;6.60;;;;;;;;;;5070310;28;20052;-80
2022/03/08 04:00:43;;;;;;;8.70;6.38;;;;;;;;;;5066089;28;20504;-81
2022/03/08 04:03:09;;;;;;;9.43;6.40;;;;;;;;;;5049184;28;20454;-81
2022/03/08 04:05:35;;;;;;;8.55;6.47;;;;;;;;;;5054544;28;20454;-81
2022/03/08 04:08:04;;;;;;;8.43;6.38;;;;;;;;;;5069544;28;20424;-80
2022/03/08 04:10:30;;;;;;;7.55;6.40;;;;;;;;;;5051473;28;20135;-81
2022/03/08 04:12:56;;;;;;;8.27;6.72;;;;;;;;;;5069746;28;20524;-80
2022/03/08 04:15:22;;;;;;;9.02;6.85;;;;;;;;;;5051918;28;20502;-81
2022/03/08 04:17:51;;;;;;;11.48;6.88;;;;;;;;;;5068119;28;20067;-80
2022/03/08 04:20:17;;;;;;;8.10;6.47;;;;;;;;;;5069592;28;20109;-81
2022/03/08 04:22:43;;;;;;;8.80;7.00;;;;;;;;;;5044077;28;20873;-81
2022/03/08 04:25:10;;;;;;;8.73;6.85;;;;;;;;;;5051146;28;20174;-80
2022/03/08 04:27:36;;;;;;;9.60;7.13;;;;;;;;;;5053673;28;20146;-80
2022/03/08 04:30:03;;;;;;;8.40;6.78;;;;;;;;;;5055250;28;20049;-81
2022/03/08 04:32:29;;;;;;;8.88;7.05;;;;;;;;;;5070606;28;20047;-80
2022/03/08 04:34:55;;;;;;;11.50;7.00;;;;;;;;;;5056358;28;20424;-80
2022/03/08 04:37:22;;;;;;;8.98;7.45;;;;;;;;;;5072792;28;20049;-81
2022/03/08 04:39:48;;;;;;;9.18;6.97;;;;;;;;;;5069633;28;20169;-80
2022/03/08 04:42:14;;;;;;;9.27;7.05;;;;;;;;;;5054933;28;20500;-81
2022/03/08 04:44:40;;;;;;;8.73;6.95;;;;;;;;;;5056610;28;20063;-80
2022/03/08 04:47:09;;;;;;;8.45;6.97;;;;;;;;;;5072868;28;20096;-80
2022/03/08 04:49:35;;;;;;;11.15;7.60;;;;;;;;;;5070035;28;20068;-80
2022/03/08 04:52:04;;;;;;;8.88;7.30;;;;;;;;;;5069634;28;20047;-80
2022/03/08 04:54:33;;;;;;;10.40;7.85;;;;;;;;;;5072695;28;20078;-80
2022/03/08 04:56:59;;;;;;;9.25;7.30;;;;;;;;;;5054884;28;20052;-80
2022/03/08 04:59:25;;;;;;;9.35;7.32;;;;;;;;;;5070939;28;20057;-79
2022/03/08 05:01:51;;;;;;;9.55;7.80;;;;;;;;;;5072288;28;20040;-80
2022/03/08 05:04:21;;;;;;;10.50;7.45;;;;;;;;;;5054518;28;20095;-79
2022/03/08 05:06:47;;;;;;;10.00;7.90;;;;;;;;;;5070402;28;20044;-80
2022/03/08 05:09:13;;;;;;;9.65;7.82;;;;;;;;;;5054290;28;20070;-80
2022/03/08 05:11:39;;;;;;;8.88;7.00;;;;;;;;;;5052467;28;20060;-80
2022/03/08 05:14:06;;;;;;;9.45;7.53;;;;;;;;;;5071781;28;20044;-80
2022/03/08 05:16:32;;;;;;;9.52;7.78;;;;;;;;;;5072214;28;20535;-81
2022/03/08 05:18:58;;;;;;;10.77;7.53;;;;;;;;;;5054203;28;20044;-80
2022/03/08 05:21:24;;;;;;;10.00;7.85;;;;;;;;;;5067520;28;20137;-81
2022/03/08 05:23:51;;;;;;;10.80;7.97;;;;;;;;;;5072474;28;20040;-80
2022/03/08 05:26:17;;;;;;;11.38;7.57;;;;;;;;;;5053591;28;20115;-81
2022/03/08 05:28:43;;;;;;;10.98;8.38;;;;;;;;;;5069589;28;20510;-80
2022/03/08 05:31:13;;;;;;;10.35;8.25;;;;;;;;;;5050078;28;20040;-81
2022/03/08 05:33:39;;;;;;;10.90;8.52;;;;;;;;;;5064378;28;20774;-80
2022/03/08 05:36:06;;;;;;;12.15;8.05;;;;;;;;;;5068548;28;20101;-81
2022/03/08 05:38:34;;;;;;;12.25;8.35;;;;;;;;;;5052645;28;20069;-80
2022/03/08 05:41:01;;;;;;;10.50;8.38;;;;;;;;;;5069938;28;20048;-81
2022/03/08 05:43:27;;;;;;;11.60;8.13;;;;;;;;;;5069280;28;20044;-80
2022/03/08 05:45:53;;;;;;;12.02;8.23;;;;;;;;;;5053439;28;20106;-80
2022/03/08 05:48:19;;;;;;;10.27;8.25;;;;;;;;;;5068337;28;20033;-80
2022/03/08 05:50:45;;;;;;;9.98;8.32;;;;;;;;;;5069406;28;20048;-80
2022/03/08 05:53:11;;;;;;;10.10;8.20;;;;;;;;;;5070666;28;20090;-81
2022/03/08 05:55:38;;;;;;;11.45;8.95;;;;;;;;;;5068675;28;20508;-81
2022/03/08 05:58:04;;;;;;;10.75;8.80;;;;;;;;;;5071222;28;20036;-80
2022/03/08 06:00:30;;;;;;;11.15;8.27;;;;;;;;;;5059478;28;20056;-81
2022/03/08 06:02:56;;;;;;;10.65;8.60;;;;;;;;;;5069938;28;20037;-80
2022/03/08 06:05:22;;;;;;;11.73;8.93;;;;;;;;;;5062694;28;20044;-81
2022/03/08 06:07:48;;;;;;;10.88;8.15;;;;;;;;;;5052431;28;20080;-80
2022/03/08 06:10:14;;;;;;;10.45;8.15;;;;;;;;;;5054776;28;20044;-81
2022/03/08 06:12:41;;;;;;;10.70;8.63;;;;;;;;;;5054046;28;20054;-80
2022/03/08 06:15:08;;;;;;;11.38;8.93;;;;;;;;;;5052535;28;20491;-81
2022/03/08 06:17:34;;;;;;;10.73;8.45;;;;;;;;;;5051811;28;20044;-81
2022/03/08 06:20:00;;;;;;;10.55;8.48;;;;;;;;;;5047386;28;20049;-80
2022/03/08 06:22:26;;;;;;;10.32;8.45;;;;;;;;;;5046774;28;20401;-80
2022/03/08 06:24:52;;;;;;;12.90;9.05;;;;;;;;;;5068564;28;20045;-80
2022/03/08 06:27:18;;;;;;;10.82;8.93;;;;;;;;;;5070832;28;20043;-81
2022/03/08 06:29:44;;;;;;;11.20;8.13;;;;;;;;;;5070003;28;20047;-80
2022/03/08 06:32:10;;;;;;;12.23;8.52;;;;;;;;;;5070218;28;20742;-80
2022/03/08 06:34:36;;;;;;;11.45;8.55;;;;;;;;;;5067185;28;20352;-80
2022/03/08 06:37:02;;;;;;;11.13;8.70;;;;;;;;;;5068384;28;20120;-80
2022/03/08 06:39:30;;;;;;;10.50;8.40;;;;;;;;;;5069431;28;20447;-80
2022/03/08 06:41:56;;;;;;;11.20;8.73;;;;;;;;;;5051547;28;20083;-81
2022/03/08 06:44:28;;;;;;;11.80;9.23;;;;;;;;;;5052144;28;20392;-80
2022/03/08 06:46:54;;;;;;;11.15;9.05;;;;;;;;;;5069198;28;20060;-80
2022/03/08 06:49:20;;;;;;;12.18;8.80;;;;;;;;;;5047275;28;20041;-78
2022/03/08 06:51:46;;;;;;;10.05;8.55;;;;;;;;;;5049178;28;20058;-79
2022/03/08 06:54:15;;;;;;;11.63;8.85;;;;;;;;;;5069285;28;20055;-78
2022/03/08 06:56:41;;;;;;;13.32;9.43;;;;;;;;;;5049576;28;20071;-79
2022/03/08 06:59:07;;;;;;;12.80;8.77;;;;;;;;;;5047554;28;20107;-80
2022/03/08 07:01:33;;;;;;;11.07;8.70;;;;;;;;;;5050773;28;20049;-79
2022/03/08 07:03:59;;;;;;;12.20;9.07;;;;;;;;;;5071094;28;20080;-79
2022/03/08 07:06:25;;;;;;;12.52;9.15;;;;;;;;;;5051727;28;20048;-79
2022/03/08 07:08:53;;;;;;;12.23;8.82;;;;;;;;;;5065160;28;20040;-81
2022/03/08 07:11:24;;;;;;;11.73;8.68;;;;;;;;;;5067944;28;20488;-78
2022/03/08 07:13:50;;;;;;;10.40;8.73;;;;;;;;;;5049524;28;20040;-79
2022/03/08 07:16:16;;;;;;;10.15;8.65;;;;;;;;;;5052035;28;20045;-79
2022/03/08 07:18:42;;;;;;;11.48;9.43;;;;;;;;;;5054689;28;20381;-79
2022/03/08 07:21:08;;;;;;;12.45;9.43;;;;;;;;;;5069122;28;20059;-79
2022/03/08 07:23:34;;;;;;;11.43;8.95;;;;;;;;;;5044485;28;20179;-78
2022/03/08 07:26:00;;;;;;;11.02;9.23;;;;;;;;;;5051668;28;20318;-78
2022/03/08 07:28:26;;;;;;;12.10;9.23;;;;;;;;;;5048858;28;20044;-78
2022/03/08 07:30:52;;;;;;;11.85;9.52;;;;;;;;;;5051775;28;20048;-79
2022/03/08 07:33:18;;;;;;;11.40;9.40;;;;;;;;;;5068704;28;20041;-79
2022/03/08 07:35:44;;;;;;;11.50;9.43;;;;;;;;;;5050573;28;20135;-79
2022/03/08 07:38:11;;;;;;;11.35;10.15;;;;;;;;;;5057270;28;20171;-81
2022/03/08 07:40:37;;;;;;;10.93;9.27;;;;;;;;;;5063981;28;20460;-80
2022/03/08 07:43:03;;;;;;;10.65;8.85;;;;;;;;;;5070194;28;20041;-80
2022/03/08 07:45:29;;;;;;;10.50;8.85;;;;;;;;;;5067236;28;20067;-80
2022/03/08 07:47:55;;;;;;;11.20;9.35;;;;;;;;;;5052544;28;20107;-81
2022/03/08 07:50:25;;;;;;;10.73;9.48;;;;;;;;;;5069642;28;20047;-83
2022/03/08 07:52:52;;;;;;;10.95;9.15;;;;;;;;;;5049381;28;20047;-83
2022/03/08 07:55:18;;;;;;;11.10;9.70;;;;;;;;;;5052165;28;20051;-83
2022/03/08 07:57:44;;;;;;;10.13;8.48;;;;;;;;;;5052669;28;20447;-83
2022/03/08 08:00:10;;;;;;;10.38;9.27;;;;;;;;;;5051726;28;20136;-84
2022/03/08 08:02:39;;;;;;;10.75;8.93;;;;;;;;;;5049325;28;20041;-83
2022/03/08 08:05:05;;;;;;;10.10;8.25;;;;;;;;;;5047810;28;20057;-83
2022/03/08 08:07:31;;;;;;;11.73;9.20;;;;;;;;;;5051878;28;20037;-83
2022/03/08 08:09:57;;;;;;;9.70;8.70;;;;;;;;;;5050621;28;20041;-82
2022/03/08 08:12:23;;;;;;;12.15;9.23;;;;;;;;;;5051288;28;20390;-83
2022/03/08 08:14:49;;;;;;;10.27;8.40;;;;;;;;;;5052600;28;20053;-83
2022/03/08 08:17:16;;;;;;;9.60;8.50;;;;;;;;;;5047350;28;20083;-83
2022/03/08 08:19:42;;;;;;;10.82;8.90;;;;;;;;;;5051774;28;20075;-83
2022/03/08 08:22:08;;;;;;;10.90;9.27;;;;;;;;;;5052424;28;20496;-84
2022/03/08 08:24:34;;;;;;;10.18;8.88;;;;;;;;;;5050891;28;20041;-83
2022/03/08 08:27:00;;;;;;;10.35;8.32;;;;;;;;;;5051941;28;20047;-82
2022/03/08 08:29:26;;;;;;;10.70;9.40;;;;;;;;;;5052409;28;20037;-84
2022/03/08 08:31:52;;;;;;;10.68;8.73;;;;;;;;;;5049373;28;20036;-84
2022/03/08 08:34:18;;;;;;;9.98;8.60;;;;;;;;;;5051824;28;20045;-84
2022/03/08 08:36:47;;;;;;;11.25;8.43;;;;;;;;;;5051433;28;20036;-84
2022/03/08 08:39:17;;;;;;;8.77;7.88;;;;;;;;;;5052487;28;20060;-85
2022/03/08 08:41:44;;;;;;;9.93;8.50;;;;;;;;;;5052134;28;20037;-84
2022/03/08 08:44:10;;;;;;;9.05;7.72;;;;;;;;;;5051161;28;20075;-84
2022/03/08 08:46:36;;;;;;;9.68;8.60;;;;;;;;;;5052469;28;20098;-83
2022/03/08 08:49:03;;;;;;;10.50;8.48;;;;;;;;;;5053525;28;20051;-84
2022/03/08 08:51:29;;;;;;;9.45;8.35;;;;;;;;;;5052690;28;20040;-84
2022/03/08 08:53:55;;;;;;;9.50;8.20;;;;;;;;;;5051186;28;20049;-83
2022/03/08 08:56:24;;;;;;;10.40;8.50;;;;;;;;;;5047173;28;20042;-84
2022/03/08 08:58:50;;;;;;;9.35;7.97;;;;;;;;;;5050160;28;20045;-85
2022/03/08 09:01:16;;;;;;;8.65;7.75;;;;;;;;;;5054484;28;20053;-84
2022/03/08 09:03:42;;;;;;;8.80;7.90;;;;;;;;;;5048366;28;20043;-84
2022/03/08 09:06:08;;;;;;;9.98;7.03;;;;;;;;;;5054202;28;20400;-83
2022/03/08 09:08:34;;;;;;;8.45;7.55;;;;;;;;;;5052404;28;20094;-83
2022/03/08 09:11:00;;;;;;;8.18;7.20;;;;;;;;;;5054228;28;20476;-84
2022/03/08 09:13:26;;;;;;;8.48;6.03;;;;;;;;;;5053843;28;20045;-84
2022/03/08 09:15:52;;;;;;;9.55;7.30;;;;;;;;;;5049284;28;20037;-84
2022/03/08 09:18:18;;;;;;;7.35;6.55;;;;;;;;;;5073020;28;20150;-85
2022/03/08 09:20:45;;;;;;;6.80;6.10;;;;;;;;;;5041674;28;20726;-85
2022/03/08 09:23:11;;;;;;;8.40;7.07;;;;;;;;;;5056127;28;20048;-85
2022/03/08 09:25:37;;;;;;;8.00;6.68;;;;;;;;;;5055635;28;20041;-84
2022/03/08 09:28:06;;;;;;;7.18;6.22;;;;;;;;;;5051648;28;20048;-84
2022/03/08 09:30:32;;;;;;;8.25;6.47;;;;;;;;;;5071876;28;20048;-84
2022/03/08 09:32:59;;;;;;;7.75;6.80;;;;;;;;;;5054918;28;20067;-84
2022/03/08 09:35:26;;;;;;;7.05;6.32;;;;;;;;;;5052376;28;20505;-84
2022/03/08 09:37:52;;;;;;;6.82;6.13;;;;;;;;;;5050626;28;20083;-84
2022/03/08 09:40:19;;;;;;;7.03;6.20;;;;;;;;;;5052409;28;20504;-85
2022/03/08 09:42:45;;;;;;;7.43;5.97;;;;;;;;;;5047231;28;20139;-84
2022/03/08 09:45:11;;;;;;;7.82;5.68;;;;;;;;;;5052658;28;20072;-84
2022/03/08 09:47:40;;;;;;;6.97;6.28;;;;;;;;;;5070983;28;20037;-84
2022/03/08 09:50:06;;;;;;;5.82;5.22;;;;;;;;;;5054381;28;20603;-84
2022/03/08 09:52:34;;;;;;;8.27;5.55;;;;;;;;;;5052167;28;20044;-84
2022/03/08 09:55:00;;;;;;;5.55;4.88;;;;;;;;;;5053558;28;20140;-83
2022/03/08 09:57:26;;;;;;;7.72;5.47;;;;;;;;;;5054092;28;20048;-84
2022/03/08 09:59:52;;;;;;;7.78;5.25;;;;;;;;;;5052636;28;20516;-84
2022/03/08 10:02:18;;;;;;;5.72;5.13;;;;;;;;;;5070413;28;20050;-84
2022/03/08 10:04:44;;;;;;;5.25;4.75;;;;;;;;;;5047072;28;20101;-84
2022/03/08 10:07:12;;;;;;;9.45;5.90;;;;;;;;;;5066004;28;20040;-86
2022/03/08 10:09:38;;;;;;;7.05;5.18;;;;;;;;;;5071578;28;20109;-84
2022/03/08 10:12:14;;;;;;;6.88;5.60;;;;;;;;;;5052872;28;20181;-84
2022/03/08 10:14:40;;;;;;;6.82;6.00;;;;;;;;;;5070787;28;20079;-84
2022/03/08 10:17:07;;;;;;;6.05;5.45;;;;;;;;;;5070399;28;20485;-84
2022/03/08 10:19:47;;;;;;;7.38;5.10;;;;;;;;;;5072243;28;20076;-85
2022/03/08 10:22:29;;;;;;;6.13;5.07;;;;;;;;;;5048366;28;20387;-85
2022/03/08 10:25:13;;;;;;;5.88;5.28;;;;;;;;;;5067227;28;20119;-84
2022/03/08 10:27:54;;;;;;;6.18;5.57;;;;;;;;;;5068026;28;20048;-83
2022/03/08 10:30:24;;;;;;;6.32;5.55;;;;;;;;;;5050560;28;20063;-85
2022/03/08 10:32:53;;;;;;;5.47;4.97;;;;;;;;;;5070649;28;20143;-84
2022/03/08 10:35:22;;;;;;;6.20;5.22;;;;;;;;;;5071261;28;20041;-84
2022/03/08 10:37:48;;;;;;;5.55;4.95;;;;;;;;;;5042387;28;20048;-84
2022/03/08 10:40:21;;;;;;;6.28;5.57;;;;;;;;;;5068970;28;20102;-84
2022/03/08 10:42:57;;;;;;;5.72;5.03;;;;;;;;;;5065167;28;20387;-84
2022/03/08 10:45:26;;;;;;;6.00;4.72;;;;;;;;;;5058356;28;20039;-83
2022/03/08 10:47:53;;;;;;;6.50;5.78;;;;;;;;;;5055487;28;20041;-84
2022/03/08 10:50:23;;;;;;;6.22;5.43;;;;;;;;;;5049846;28;20045;-84
2022/03/08 10:52:51;;;;;;;7.43;5.32;;;;;;;;;;5055883;28;20063;-84
2022/03/08 10:55:21;;;;;;;6.03;5.43;;;;;;;;;;5054736;28;20056;-84
2022/03/08 10:57:53;;;;;;;5.93;5.38;;;;;;;;;;5064885;28;20099;-84
2022/03/08 11:00:23;;;;;;;6.00;5.40;;;;;;;;;;5054463;28;20084;-84
2022/03/08 11:02:59;;;;;;;6.10;5.47;;;;;;;;;;5048582;28;20055;-84
2022/03/08 11:05:31;;;;;;;6.35;5.40;;;;;;;;;;5052137;28;20510;-84
2022/03/08 11:07:57;;;;;;;6.07;5.07;;;;;;;;;;5051361;28;20047;-83
2022/03/08 11:10:24;;;;;;;5.93;5.25;;;;;;;;;;5070047;28;20546;-84
2022/03/08 11:12:52;;;;;;;5.82;5.32;;;;;;;;;;5047712;28;20142;-84
2022/03/08 11:15:19;;;;;;;5.18;4.78;;;;;;;;;;5050576;28;20102;-84
2022/03/08 11:17:46;;;;;;;6.55;5.30;;;;;;;;;;5046670;28;20044;-84
2022/03/08 11:20:16;;;;;;;7.90;5.35;;;;;;;;;;5047038;28;20097;-85
2022/03/08 11:22:43;;;;;;;5.32;4.90;;;;;;;;;;5046168;28;20036;-84
2022/03/08 11:25:12;;;;;;;5.60;5.10;;;;;;;;;;5053499;28;20044;-84
2022/03/08 11:27:40;;;;;;;6.00;5.40;;;;;;;;;;5046995;28;20532;-84
2022/03/08 11:30:07;;;;;;;5.70;5.20;;;;;;;;;;5051829;28;20045;-85
2022/03/08 11:32:38;;;;;;;6.65;5.45;;;;;;;;;;5055238;28;20428;-85
2022/03/08 11:35:12;;;;;;;6.55;5.95;;;;;;;;;;5054672;28;20049;-84
2022/03/08 11:37:39;;;;;;;5.43;4.93;;;;;;;;;;5066674;28;20047;-84
2022/03/08 11:40:06;;;;;;;4.75;4.28;;;;;;;;;;5053753;28;20108;-84
2022/03/08 11:42:32;;;;;;;6.75;5.10;;;;;;;;;;5060526;28;20052;-85
2022/03/08 11:45:03;;;;;;;5.85;5.00;;;;;;;;;;5054715;28;20131;-84
2022/03/08 11:47:37;;;;;;;5.20;4.70;;;;;;;;;;5056062;28;20045;-84
2022/03/08 11:50:03;;;;;;;5.28;4.75;;;;;;;;;;5050399;28;20056;-84
2022/03/08 11:52:31;;;;;;;5.90;5.30;;;;;;;;;;5073932;28;20052;-84
2022/03/08 11:55:02;;;;;;;5.43;4.93;;;;;;;;;;5058215;28;20045;-84
2022/03/08 11:57:47;;;;;;;5.00;4.40;;;;;;;;;;5055931;28;20262;-84
2022/03/08 12:00:33;;;;;;;5.22;4.80;;;;;;;;;;5054420;28;20178;-85
2022/03/08 12:03:00;;;;;;;6.30;4.72;;;;;;;;;;5055431;28;20037;-84
2022/03/08 12:05:38;;;;;;;4.90;4.30;;;;;;;;;;5052432;28;20058;-84
2022/03/08 12:08:25;;;;;;;5.15;4.65;;;;;;;;;;5049678;28;20488;-84
2022/03/08 12:11:00;;;;;;;5.40;4.90;;;;;;;;;;5068217;28;20079;-85
2022/03/08 12:13:27;;;;;;;5.50;4.40;;;;;;;;;;5056029;28;20045;-86
2022/03/08 12:16:11;;;;;;;4.57;4.15;;;;;;;;;;5038278;28;20055;-85
2022/03/08 12:18:37;;;;;;;5.93;4.60;;;;;;;;;;5050641;28;20086;-85
2022/03/08 12:21:24;;;;;;;4.75;4.25;;;;;;;;;;5052054;28;20083;-86
2022/03/08 12:23:53;;;;;;;4.80;4.30;;;;;;;;;;5049766;28;20090;-86
2022/03/08 12:26:28;;;;;;;4.90;4.40;;;;;;;;;;5054962;28;20121;-84
2022/03/08 12:29:03;;;;;;;5.35;4.55;;;;;;;;;;5052246;28;20061;-85
2022/03/08 12:31:29;;;;;;;4.90;4.40;;;;;;;;;;5056350;28;20040;-86
2022/03/08 12:34:02;;;;;;;6.28;4.35;;;;;;;;;;5056863;28;20056;-86
2022/03/08 12:36:28;;;;;;;7.72;4.28;;;;;;;;;;5057405;28;20084;-85
2022/03/08 12:38:54;;;;;;;5.43;4.15;;;;;;;;;;5069674;28;20032;-86
2022/03/08 12:41:25;;;;;;;5.63;5.07;;;;;;;;;;5067483;28;20045;-84
2022/03/08 12:43:57;;;;;;;4.90;4.50;;;;;;;;;;5071881;28;20047;-85
2022/03/08 12:46:23;;;;;;;4.45;4.07;;;;;;;;;;5053681;28;20044;-86
2022/03/08 12:48:52;;;;;;;5.05;4.63;;;;;;;;;;5055078;28;20036;-85
2022/03/08 12:51:19;;;;;;;5.07;4.65;;;;;;;;;;5072331;28;20094;-85
2022/03/08 12:53:47;;;;;;;4.88;4.32;;;;;;;;;;5065662;28;20123;-85
2022/03/08 12:56:13;;;;;;;5.78;4.80;;;;;;;;;;5073130;28;20045;-86
2022/03/08 12:58:42;;;;;;;4.88;4.20;;;;;;;;;;5050540;28;20049;-86
2022/03/08 13:01:09;;;;;;;4.35;3.95;;;;;;;;;;5050457;28;20131;-87
2022/03/08 13:03:36;;;;;;;4.97;4.47;;;;;;;;;;5052269;28;20101;-87
2022/03/08 13:06:07;;;;;;;5.32;4.82;;;;;;;;;;5041600;28;20449;-86
2022/03/08 13:08:34;;;;;;;4.45;4.07;;;;;;;;;;5070324;28;20040;-87
2022/03/08 13:11:13;;;;;;;4.72;4.20;;;;;;;;;;5059080;28;20071;-86
2022/03/08 13:13:43;;;;;;;5.15;4.65;;;;;;;;;;5071136;28;20040;-85
2022/03/08 13:16:10;;;;;;;4.75;4.35;;;;;;;;;;5053792;28;20045;-86
2022/03/08 13:18:37;;;;;;;4.93;3.88;;;;;;;;;;5068078;28;20155;-86
2022/03/08 13:21:07;;;;;;;4.55;4.15;;;;;;;;;;5053328;28;20404;-87
2022/03/08 13:23:38;;;;;;;4.75;4.18;;;;;;;;;;5053400;28;20545;-85
2022/03/08 13:26:05;;;;;;;5.18;4.13;;;;;;;;;;5069250;28;20048;-85
2022/03/08 13:28:33;;;;;;;8.43;4.72;;;;;;;;;;5068897;28;20040;-85
2022/03/08 13:31:04;;;;;;;4.60;4.20;;;;;;;;;;5054706;28;20555;-85
2022/03/08 13:33:44;;;;;;;5.03;4.60;;;;;;;;;;5052970;28;20052;-85
2022/03/08 13:36:14;;;;;;;4.60;3.83;;;;;;;;;;5050613;28;20057;-85
2022/03/08 13:38:42;;;;;;;4.18;3.88;;;;;;;;;;5071641;28;20041;-85
2022/03/08 13:41:11;;;;;;;4.53;4.13;;;;;;;;;;5066798;28;20051;-85
2022/03/08 13:43:38;;;;;;;4.38;4.00;;;;;;;;;;5069689;28;20525;-85
2022/03/08 13:46:06;;;;;;;4.47;4.07;;;;;;;;;;5068626;28;20166;-84
2022/03/08 13:48:33;;;;;;;4.68;4.28;;;;;;;;;;5067986;28;20086;-79
2022/03/08 13:51:03;;;;;;;5.95;3.78;;;;;;;;;;5065052;28;20056;-86
2022/03/08 13:53:29;;;;;;;4.88;3.60;;;;;;;;;;5068307;28;20048;-86
2022/03/08 13:55:56;;;;;;;4.43;3.78;;;;;;;;;;5068681;28;20444;-85
2022/03/08 13:58:22;;;;;;;3.90;3.60;;;;;;;;;;5070288;28;20123;-84
2022/03/08 14:00:49;;;;;;;3.90;3.60;;;;;;;;;;5051959;28;20063;-85
2022/03/08 14:03:16;;;;;;;5.10;3.80;;;;;;;;;;5070431;28;20109;-85
2022/03/08 14:05:51;;;;;;;3.90;3.60;;;;;;;;;;5069170;28;20492;-85
2022/03/08 14:08:24;;;;;;;6.13;4.05;;;;;;;;;;5050246;28;20040;-84
2022/03/08 14:10:51;;;;;;;;;;;;;;;;;;5068667;28;20508;-84
2022/03/08 14:13:17;;;;;;;3.30;3.10;;;;;;;;;;5069599;28;19928;-85
2022/03/08 14:15:53;;;;;;;3.67;3.38;;;;;;;;;;5069720;28;20040;-85
2022/03/08 14:18:19;;;;;;;3.75;3.40;;;;;;;;;;5069471;28;20036;-85
2022/03/08 14:20:45;;;;;;;3.70;3.40;;;;;;;;;;5059879;28;20523;-85
2022/03/08 14:23:17;;;;;;;3.75;3.55;;;;;;;;;;5061178;28;20389;-85
2022/03/08 14:26:02;;;;;;;3.40;3.20;;;;;;;;;;5070203;28;20047;-84
2022/03/08 14:28:40;;;;;;;3.67;3.35;;;;;;;;;;5051140;28;20476;-84
2022/03/08 14:31:25;;;;;;;5.72;3.70;;;;;;;;;;5052533;28;20080;-84
2022/03/08 14:34:02;;;;;;;4.07;3.60;;;;;;;;;;5048557;28;20040;-84
2022/03/08 14:36:29;;;;;;;4.40;3.85;;;;;;;;;;5051467;28;20468;-84
2022/03/08 14:41:55;;;;;;;3.95;3.50;;;;;;;;;;5050625;28;20101;-85
2022/03/08 14:44:21;;;;;;;3.67;3.38;;;;;;;;;;5046853;28;20049;-84
2022/03/08 14:46:47;;;;;;;3.50;3.30;;;;;;;;;;5052599;28;20037;-84